sensor_id;sensor_type;location;lat;lon;timestamp;pressure;altitude;pressure_sealevel;temperature;humidity
6413;BME280;3239;48.714;9.472;2023-04-28T00:01:19;98129.16;;;10.07;100.00
6413;BME280;3239;48.714;9.472;2023-04-28T00:03:44;98120.22;;;10.06;100.00
6413;BME280;3239;48.714;9.472;2023-04-28T00:06:10;98108.59;;;10.19;100.00
6413;BME280;3239;48.714;9.472;2023-04-28T00:08:36;98104.00;;;10.08;100.00
6413;BME280;3239;48.714;9.472;2023-04-28T00:11:02;98111.59;;;9.84;100.00
6413;BME280;3239;48.714;9.472;2023-04-28T00:13:28;98108.88;;;9.97;100.00
6413;BME280;3239;48.714;9.472;2023-04-28T00:15:53;98111.72;;;10.10;100.00
6413;BME280;3239;48.714;9.472;2023-04-28T00:18:20;98120.56;;;10.16;100.00
6413;BME280;3239;48.714;9.472;2023-04-28T00:20:46;98114.13;;;10.13;100.00
6413;BME280;3239;48.714;9.472;2023-04-28T00:23:12;98109.19;;;10.12;100.00
6413;BME280;3239;48.714;9.472;2023-04-28T00:25:38;98098.34;;;10.19;100.00
6413;BME280;3239;48.714;9.472;2023-04-28T00:28:04;98103.97;;;9.95;100.00
6413;BME280;3239;48.714;9.472;2023-04-28T00:30:30;98105.13;;;10.00;100.00
6413;BME280;3239;48.714;9.472;2023-04-28T00:32:55;98094.22;;;10.13;100.00
6413;BME280;3239;48.714;9.472;2023-04-28T00:35:22;98084.34;;;10.23;100.00
6413;BME280;3239;48.714;9.472;2023-04-28T00:37:47;98085.50;;;10.14;100.00
6413;BME280;3239;48.714;9.472;2023-04-28T00:40:13;98096.31;;;10.07;100.00
6413;BME280;3239;48.714;9.472;2023-04-28T00:42:39;98095.94;;;10.16;100.00
6413;BME280;3239;48.714;9.472;2023-04-28T00:45:05;98089.44;;;10.19;100.00
6413;BME280;3239;48.714;9.472;2023-04-28T00:47:33;98089.63;;;10.21;100.00
6413;BME280;3239;48.714;9.472;2023-04-28T00:50:00;98082.03;;;10.14;100.00
6413;BME280;3239;48.714;9.472;2023-04-28T00:52:27;98085.88;;;10.05;100.00
6413;BME280;3239;48.714;9.472;2023-04-28T00:54:54;98085.72;;;10.16;100.00
6413;BME280;3239;48.714;9.472;2023-04-28T00:57:21;98087.09;;;10.23;100.00
6413;BME280;3239;48.714;9.472;2023-04-28T00:59:46;98086.47;;;10.17;100.00
6413;BME280;3239;48.714;9.472;2023-04-28T01:02:12;98080.34;;;10.11;100.00
6413;BME280;3239;48.714;9.472;2023-04-28T01:04:45;98081.72;;;10.17;100.00
6413;BME280;3239;48.714;9.472;2023-04-28T01:07:11;98080.06;;;10.27;100.00
6413;BME280;3239;48.714;9.472;2023-04-28T01:09:37;98091.63;;;10.20;100.00
6413;BME280;3239;48.714;9.472;2023-04-28T01:12:03;98086.31;;;10.09;100.00
6413;BME280;3239;48.714;9.472;2023-04-28T01:14:28;98086.88;;;10.21;100.00
6413;BME280;3239;48.714;9.472;2023-04-28T01:16:55;98075.94;;;10.21;100.00
6413;BME280;3239;48.714;9.472;2023-04-28T01:19:21;98080.66;;;10.20;100.00
6413;BME280;3239;48.714;9.472;2023-04-28T01:21:48;98075.19;;;10.20;100.00
6413;BME280;3239;48.714;9.472;2023-04-28T01:24:15;98080.47;;;10.18;100.00
6413;BME280;3239;48.714;9.472;2023-04-28T01:26:40;98072.69;;;10.22;100.00
6413;BME280;3239;48.714;9.472;2023-04-28T01:29:06;98074.03;;;10.29;100.00
6413;BME280;3239;48.714;9.472;2023-04-28T01:31:32;98072.06;;;10.29;100.00
6413;BME280;3239;48.714;9.472;2023-04-28T01:33:58;98080.06;;;10.27;100.00
6413;BME280;3239;48.714;9.472;2023-04-28T01:36:24;98077.97;;;10.33;100.00
6413;BME280;3239;48.714;9.472;2023-04-28T01:38:52;98071.31;;;10.29;100.00
6413;BME280;3239;48.714;9.472;2023-04-28T01:41:17;98068.25;;;10.19;100.00
6413;BME280;3239;48.714;9.472;2023-04-28T01:43:43;98078.69;;;10.21;100.00
6413;BME280;3239;48.714;9.472;2023-04-28T01:46:09;98071.97;;;10.35;100.00
6413;BME280;3239;48.714;9.472;2023-04-28T01:48:35;98070.19;;;10.37;100.00
6413;BME280;3239;48.714;9.472;2023-04-28T01:51:01;98070.19;;;10.37;100.00
6413;BME280;3239;48.714;9.472;2023-04-28T01:53:27;98074.72;;;10.35;100.00
6413;BME280;3239;48.714;9.472;2023-04-28T01:55:53;98065.34;;;10.43;100.00
6413;BME280;3239;48.714;9.472;2023-04-28T01:58:19;98051.53;;;10.36;100.00
6413;BME280;3239;48.714;9.472;2023-04-28T02:00:45;98059.81;;;10.17;100.00
6413;BME280;3239;48.714;9.472;2023-04-28T02:03:11;98064.78;;;10.19;100.00
6413;BME280;3239;48.714;9.472;2023-04-28T02:05:36;98066.47;;;10.22;100.00
6413;BME280;3239;48.714;9.472;2023-04-28T02:08:02;98062.69;;;10.38;100.00
6413;BME280;3239;48.714;9.472;2023-04-28T02:10:28;98053.97;;;10.39;100.00
6413;BME280;3239;48.714;9.472;2023-04-28T02:12:54;98055.19;;;10.12;100.00
6413;BME280;3239;48.714;9.472;2023-04-28T02:15:20;98062.69;;;10.25;100.00
6413;BME280;3239;48.714;9.472;2023-04-28T02:17:46;98065.84;;;10.29;100.00
6413;BME280;3239;48.714;9.472;2023-04-28T02:20:12;98063.09;;;10.29;100.00
6413;BME280;3239;48.714;9.472;2023-04-28T02:22:39;98061.53;;;10.33;100.00
6413;BME280;3239;48.714;9.472;2023-04-28T02:25:06;98066.59;;;10.29;100.00
6413;BME280;3239;48.714;9.472;2023-04-28T02:27:34;98044.34;;;10.33;100.00
6413;BME280;3239;48.714;9.472;2023-04-28T02:30:03;98049.94;;;10.40;100.00
6413;BME280;3239;48.714;9.472;2023-04-28T02:32:29;98042.88;;;10.45;100.00
6413;BME280;3239;48.714;9.472;2023-04-28T02:34:54;98040.69;;;10.43;100.00
6413;BME280;3239;48.714;9.472;2023-04-28T02:37:20;98046.19;;;10.43;100.00
6413;BME280;3239;48.714;9.472;2023-04-28T02:39:46;98065.31;;;10.30;100.00
6413;BME280;3239;48.714;9.472;2023-04-28T02:42:12;98052.06;;;10.34;100.00
6413;BME280;3239;48.714;9.472;2023-04-28T02:44:38;98047.13;;;10.46;100.00
6413;BME280;3239;48.714;9.472;2023-04-28T02:47:04;98063.97;;;10.37;100.00
6413;BME280;3239;48.714;9.472;2023-04-28T02:49:30;98055.00;;;10.23;100.00
6413;BME280;3239;48.714;9.472;2023-04-28T02:51:56;98041.63;;;10.33;100.00
6413;BME280;3239;48.714;9.472;2023-04-28T02:54:21;98033.63;;;10.35;100.00
6413;BME280;3239;48.714;9.472;2023-04-28T02:56:54;98043.22;;;10.28;100.00
6413;BME280;3239;48.714;9.472;2023-04-28T02:59:21;98047.44;;;10.42;100.00
6413;BME280;3239;48.714;9.472;2023-04-28T03:01:48;98052.06;;;10.47;100.00
6413;BME280;3239;48.714;9.472;2023-04-28T03:04:14;98056.81;;;10.47;100.00
6413;BME280;3239;48.714;9.472;2023-04-28T03:06:41;98046.06;;;10.49;100.00
6413;BME280;3239;48.714;9.472;2023-04-28T03:09:07;98044.38;;;10.46;100.00
6413;BME280;3239;48.714;9.472;2023-04-28T03:11:33;98054.72;;;10.53;100.00
6413;BME280;3239;48.714;9.472;2023-04-28T03:13:59;98055.47;;;10.53;100.00
6413;BME280;3239;48.714;9.472;2023-04-28T03:16:25;98057.00;;;10.49;100.00
6413;BME280;3239;48.714;9.472;2023-04-28T03:18:50;98066.41;;;10.53;100.00
6413;BME280;3239;48.714;9.472;2023-04-28T03:21:16;98067.78;;;10.47;100.00
6413;BME280;3239;48.714;9.472;2023-04-28T03:23:42;98065.03;;;10.47;100.00
6413;BME280;3239;48.714;9.472;2023-04-28T03:26:07;98066.19;;;10.51;100.00
6413;BME280;3239;48.714;9.472;2023-04-28T03:28:33;98068.31;;;10.58;100.00
6413;BME280;3239;48.714;9.472;2023-04-28T03:30:59;98072.25;;;10.31;100.00
6413;BME280;3239;48.714;9.472;2023-04-28T03:33:25;98087.47;;;10.45;100.00
6413;BME280;3239;48.714;9.472;2023-04-28T03:35:50;98085.88;;;10.50;100.00
6413;BME280;3239;48.714;9.472;2023-04-28T03:38:18;98089.56;;;10.52;100.00
6413;BME280;3239;48.714;9.472;2023-04-28T03:40:43;98100.31;;;10.50;100.00
6413;BME280;3239;48.714;9.472;2023-04-28T03:43:09;98092.63;;;10.49;100.00
6413;BME280;3239;48.714;9.472;2023-04-28T03:45:35;98095.72;;;10.58;100.00
6413;BME280;3239;48.714;9.472;2023-04-28T03:48:01;98104.41;;;10.44;100.00
6413;BME280;3239;48.714;9.472;2023-04-28T03:50:26;98123.66;;;10.25;100.00
6413;BME280;3239;48.714;9.472;2023-04-28T03:52:52;98130.31;;;10.43;100.00
6413;BME280;3239;48.714;9.472;2023-04-28T03:55:18;98127.91;;;10.39;100.00
6413;BME280;3239;48.714;9.472;2023-04-28T03:57:44;98135.09;;;10.42;100.00
6413;BME280;3239;48.714;9.472;2023-04-28T04:00:10;98139.06;;;10.41;100.00
6413;BME280;3239;48.714;9.472;2023-04-28T04:02:36;98143.72;;;10.46;100.00
6413;BME280;3239;48.714;9.472;2023-04-28T04:05:02;98156.81;;;10.53;100.00
6413;BME280;3239;48.714;9.472;2023-04-28T04:07:28;98160.97;;;10.41;100.00
6413;BME280;3239;48.714;9.472;2023-04-28T04:09:53;98162.09;;;10.33;100.00
6413;BME280;3239;48.714;9.472;2023-04-28T04:12:19;98166.75;;;10.38;100.00
6413;BME280;3239;48.714;9.472;2023-04-28T04:14:45;98173.00;;;10.51;100.00
6413;BME280;3239;48.714;9.472;2023-04-28T04:17:10;98182.06;;;10.46;100.00
6413;BME280;3239;48.714;9.472;2023-04-28T04:19:36;98187.19;;;10.37;100.00
6413;BME280;3239;48.714;9.472;2023-04-28T04:22:02;98194.31;;;10.27;100.00
6413;BME280;3239;48.714;9.472;2023-04-28T04:24:27;98190.72;;;10.19;100.00
6413;BME280;3239;48.714;9.472;2023-04-28T04:26:53;98203.28;;;10.27;100.00
6413;BME280;3239;48.714;9.472;2023-04-28T04:29:19;98204.16;;;10.35;100.00
6413;BME280;3239;48.714;9.472;2023-04-28T04:31:45;98209.31;;;10.39;100.00
6413;BME280;3239;48.714;9.472;2023-04-28T04:34:10;98206.41;;;10.50;100.00
6413;BME280;3239;48.714;9.472;2023-04-28T04:36:36;98202.63;;;10.53;100.00
6413;BME280;3239;48.714;9.472;2023-04-28T04:39:02;98207.72;;;10.62;100.00
6413;BME280;3239;48.714;9.472;2023-04-28T04:41:28;98202.25;;;10.62;100.00
6413;BME280;3239;48.714;9.472;2023-04-28T04:43:54;98196.44;;;10.65;100.00
6413;BME280;3239;48.714;9.472;2023-04-28T04:46:20;98201.50;;;10.61;100.00
6413;BME280;3239;48.714;9.472;2023-04-28T04:48:46;98197.78;;;10.59;100.00
6413;BME280;3239;48.714;9.472;2023-04-28T04:51:12;98199.25;;;10.60;100.00
6413;BME280;3239;48.714;9.472;2023-04-28T04:53:37;98208.06;;;10.71;100.00
6413;BME280;3239;48.714;9.472;2023-04-28T04:56:04;98221.00;;;10.71;100.00
6413;BME280;3239;48.714;9.472;2023-04-28T04:58:30;98223.97;;;10.73;100.00
6413;BME280;3239;48.714;9.472;2023-04-28T05:00:57;98216.59;;;10.68;100.00
6413;BME280;3239;48.714;9.472;2023-04-28T05:03:23;98212.78;;;10.71;100.00
6413;BME280;3239;48.714;9.472;2023-04-28T05:05:49;98220.53;;;10.54;100.00
6413;BME280;3239;48.714;9.472;2023-04-28T05:08:14;98216.34;;;10.66;100.00
6413;BME280;3239;48.714;9.472;2023-04-28T05:10:40;98225.28;;;10.53;100.00
6413;BME280;3239;48.714;9.472;2023-04-28T05:13:06;98222.75;;;10.55;100.00
6413;BME280;3239;48.714;9.472;2023-04-28T05:15:32;98220.34;;;10.65;100.00
6413;BME280;3239;48.714;9.472;2023-04-28T05:17:58;98226.91;;;10.75;100.00
6413;BME280;3239;48.714;9.472;2023-04-28T05:20:23;98234.22;;;10.85;100.00
6413;BME280;3239;48.714;9.472;2023-04-28T05:22:49;98235.47;;;10.84;100.00
6413;BME280;3239;48.714;9.472;2023-04-28T05:25:15;98235.19;;;10.88;100.00
6413;BME280;3239;48.714;9.472;2023-04-28T05:27:41;98225.53;;;10.68;100.00
6413;BME280;3239;48.714;9.472;2023-04-28T05:30:08;98229.75;;;10.69;100.00
6413;BME280;3239;48.714;9.472;2023-04-28T05:32:36;98232.53;;;10.82;100.00
6413;BME280;3239;48.714;9.472;2023-04-28T05:35:02;98257.00;;;10.93;100.00
6413;BME280;3239;48.714;9.472;2023-04-28T05:37:28;98257.88;;;11.01;100.00
6413;BME280;3239;48.714;9.472;2023-04-28T05:39:54;98267.75;;;10.91;100.00
6413;BME280;3239;48.714;9.472;2023-04-28T05:42:20;98280.13;;;10.98;100.00
6413;BME280;3239;48.714;9.472;2023-04-28T05:44:45;98277.28;;;11.03;100.00
6413;BME280;3239;48.714;9.472;2023-04-28T05:47:11;98287.41;;;11.08;100.00
6413;BME280;3239;48.714;9.472;2023-04-28T05:49:37;98295.56;;;11.14;100.00
6413;BME280;3239;48.714;9.472;2023-04-28T05:52:03;98305.25;;;11.28;100.00
6413;BME280;3239;48.714;9.472;2023-04-28T05:54:29;98312.13;;;11.34;100.00
6413;BME280;3239;48.714;9.472;2023-04-28T05:56:55;98316.59;;;11.37;100.00
6413;BME280;3239;48.714;9.472;2023-04-28T05:59:22;98311.63;;;11.36;100.00
6413;BME280;3239;48.714;9.472;2023-04-28T06:01:48;98302.31;;;11.39;100.00
6413;BME280;3239;48.714;9.472;2023-04-28T06:04:15;98313.94;;;11.32;100.00
6413;BME280;3239;48.714;9.472;2023-04-28T06:06:41;98307.09;;;11.38;100.00
6413;BME280;3239;48.714;9.472;2023-04-28T06:09:07;98306.03;;;11.41;100.00
6413;BME280;3239;48.714;9.472;2023-04-28T06:11:33;98301.72;;;11.46;100.00
6413;BME280;3239;48.714;9.472;2023-04-28T06:13:59;98301.16;;;11.47;100.00
6413;BME280;3239;48.714;9.472;2023-04-28T06:16:25;98291.69;;;11.48;100.00
6413;BME280;3239;48.714;9.472;2023-04-28T06:18:50;98290.50;;;11.44;100.00
6413;BME280;3239;48.714;9.472;2023-04-28T06:21:17;98283.97;;;11.34;100.00
6413;BME280;3239;48.714;9.472;2023-04-28T06:23:43;98278.19;;;11.50;100.00
6413;BME280;3239;48.714;9.472;2023-04-28T06:26:09;98288.53;;;11.44;100.00
6413;BME280;3239;48.714;9.472;2023-04-28T06:28:35;98289.97;;;11.58;100.00
6413;BME280;3239;48.714;9.472;2023-04-28T06:31:01;98302.69;;;11.61;100.00
6413;BME280;3239;48.714;9.472;2023-04-28T06:33:26;98308.69;;;11.47;100.00
6413;BME280;3239;48.714;9.472;2023-04-28T06:35:52;98311.09;;;11.37;100.00
6413;BME280;3239;48.714;9.472;2023-04-28T06:38:18;98312.13;;;11.47;100.00
6413;BME280;3239;48.714;9.472;2023-04-28T06:40:44;98310.34;;;11.37;100.00
6413;BME280;3239;48.714;9.472;2023-04-28T06:43:10;98319.53;;;11.39;100.00
6413;BME280;3239;48.714;9.472;2023-04-28T06:45:37;98326.06;;;11.36;100.00
6413;BME280;3239;48.714;9.472;2023-04-28T06:48:03;98324.81;;;11.37;100.00
6413;BME280;3239;48.714;9.472;2023-04-28T06:50:29;98329.44;;;11.42;100.00
6413;BME280;3239;48.714;9.472;2023-04-28T06:52:55;98334.63;;;11.46;100.00
6413;BME280;3239;48.714;9.472;2023-04-28T06:55:21;98334.84;;;11.48;100.00
6413;BME280;3239;48.714;9.472;2023-04-28T06:57:46;98340.66;;;11.57;100.00
6413;BME280;3239;48.714;9.472;2023-04-28T07:00:13;98346.28;;;11.65;100.00
6413;BME280;3239;48.714;9.472;2023-04-28T07:02:38;98351.78;;;11.65;100.00
6413;BME280;3239;48.714;9.472;2023-04-28T07:05:05;98349.88;;;11.60;100.00
6413;BME280;3239;48.714;9.472;2023-04-28T07:07:31;98356.41;;;11.70;100.00
6413;BME280;3239;48.714;9.472;2023-04-28T07:09:56;98355.47;;;11.67;100.00
6413;BME280;3239;48.714;9.472;2023-04-28T07:12:23;98361.38;;;11.71;100.00
6413;BME280;3239;48.714;9.472;2023-04-28T07:14:49;98369.75;;;11.47;100.00
6413;BME280;3239;48.714;9.472;2023-04-28T07:17:15;98370.50;;;11.48;100.00
6413;BME280;3239;48.714;9.472;2023-04-28T07:19:41;98382.13;;;11.54;100.00
6413;BME280;3239;48.714;9.472;2023-04-28T07:22:07;98371.91;;;11.54;100.00
6413;BME280;3239;48.714;9.472;2023-04-28T07:24:33;98381.81;;;11.57;100.00
6413;BME280;3239;48.714;9.472;2023-04-28T07:26:58;98386.41;;;11.68;100.00
6413;BME280;3239;48.714;9.472;2023-04-28T07:29:24;98380.69;;;11.66;100.00
6413;BME280;3239;48.714;9.472;2023-04-28T07:31:53;98403.28;;;11.59;100.00
6413;BME280;3239;48.714;9.472;2023-04-28T07:34:19;98387.59;;;11.54;100.00
6413;BME280;3239;48.714;9.472;2023-04-28T07:36:45;98397.78;;;11.59;100.00
6413;BME280;3239;48.714;9.472;2023-04-28T07:39:11;98394.97;;;11.64;100.00
6413;BME280;3239;48.714;9.472;2023-04-28T07:41:37;98393.69;;;11.65;100.00
6413;BME280;3239;48.714;9.472;2023-04-28T07:44:06;98395.28;;;11.74;100.00
6413;BME280;3239;48.714;9.472;2023-04-28T07:46:33;98403.94;;;11.91;100.00
6413;BME280;3239;48.714;9.472;2023-04-28T07:48:59;98403.94;;;11.78;100.00
6413;BME280;3239;48.714;9.472;2023-04-28T07:51:25;98401.00;;;11.89;100.00
6413;BME280;3239;48.714;9.472;2023-04-28T07:53:51;98403.31;;;11.72;100.00
6413;BME280;3239;48.714;9.472;2023-04-28T07:56:17;98415.88;;;11.80;100.00
6413;BME280;3239;48.714;9.472;2023-04-28T07:58:43;98416.53;;;11.86;100.00
6413;BME280;3239;48.714;9.472;2023-04-28T08:01:09;98420.66;;;11.93;100.00
6413;BME280;3239;48.714;9.472;2023-04-28T08:03:34;98424.22;;;12.01;100.00
6413;BME280;3239;48.714;9.472;2023-04-28T08:06:00;98427.63;;;11.94;100.00
6413;BME280;3239;48.714;9.472;2023-04-28T08:08:26;98433.75;;;12.00;100.00
6413;BME280;3239;48.714;9.472;2023-04-28T08:10:52;98431.19;;;12.02;100.00
6413;BME280;3239;48.714;9.472;2023-04-28T08:13:19;98432.03;;;11.97;100.00
6413;BME280;3239;48.714;9.472;2023-04-28T08:15:47;98434.47;;;11.87;100.00
6413;BME280;3239;48.714;9.472;2023-04-28T08:18:13;98444.09;;;11.94;100.00
6413;BME280;3239;48.714;9.472;2023-04-28T08:20:38;98452.66;;;12.03;100.00
6413;BME280;3239;48.714;9.472;2023-04-28T08:23:04;98474.28;;;11.94;100.00
6413;BME280;3239;48.714;9.472;2023-04-28T08:25:30;98471.94;;;11.85;100.00
6413;BME280;3239;48.714;9.472;2023-04-28T08:27:56;98473.94;;;11.84;100.00
6413;BME280;3239;48.714;9.472;2023-04-28T08:30:21;98478.78;;;11.78;100.00
6413;BME280;3239;48.714;9.472;2023-04-28T08:32:47;98488.84;;;11.89;100.00
6413;BME280;3239;48.714;9.472;2023-04-28T08:35:13;98495.63;;;12.01;100.00
6413;BME280;3239;48.714;9.472;2023-04-28T08:37:40;98504.63;;;12.01;100.00
6413;BME280;3239;48.714;9.472;2023-04-28T08:40:07;98493.91;;;11.98;100.00
6413;BME280;3239;48.714;9.472;2023-04-28T08:42:36;98510.81;;;11.89;100.00
6413;BME280;3239;48.714;9.472;2023-04-28T08:45:04;98516.31;;;12.02;100.00
6413;BME280;3239;48.714;9.472;2023-04-28T08:47:39;98531.88;;;12.12;100.00
6413;BME280;3239;48.714;9.472;2023-04-28T08:50:15;98536.22;;;12.21;100.00
6413;BME280;3239;48.714;9.472;2023-04-28T08:52:46;98539.63;;;12.27;100.00
6413;BME280;3239;48.714;9.472;2023-04-28T08:55:12;98546.72;;;12.35;100.00
6413;BME280;3239;48.714;9.472;2023-04-28T08:57:48;98558.78;;;12.45;100.00
6413;BME280;3239;48.714;9.472;2023-04-28T09:00:14;98560.69;;;12.50;100.00
6413;BME280;3239;48.714;9.472;2023-04-28T09:02:40;98561.63;;;12.53;100.00
6413;BME280;3239;48.714;9.472;2023-04-28T09:05:10;98565.44;;;12.50;100.00
6413;BME280;3239;48.714;9.472;2023-04-28T09:07:37;98564.06;;;12.56;100.00
6413;BME280;3239;48.714;9.472;2023-04-28T09:12:46;98569.66;;;12.77;100.00
6413;BME280;3239;48.714;9.472;2023-04-28T09:15:36;98594.41;;;12.77;100.00
6413;BME280;3239;48.714;9.472;2023-04-28T09:18:04;98594.31;;;12.82;100.00
6413;BME280;3239;48.714;9.472;2023-04-28T09:20:32;98592.31;;;12.83;100.00
6413;BME280;3239;48.714;9.472;2023-04-28T09:23:19;98597.28;;;12.84;100.00
6413;BME280;3239;48.714;9.472;2023-04-28T09:28:24;98593.28;;;12.98;100.00
6413;BME280;3239;48.714;9.472;2023-04-28T09:30:50;98593.72;;;13.02;100.00
6413;BME280;3239;48.714;9.472;2023-04-28T09:33:16;98589.78;;;13.11;100.00
6413;BME280;3239;48.714;9.472;2023-04-28T09:35:42;98593.16;;;13.17;100.00
6413;BME280;3239;48.714;9.472;2023-04-28T09:38:11;98589.13;;;13.18;100.00
6413;BME280;3239;48.714;9.472;2023-04-28T09:40:57;98587.34;;;13.20;100.00
6413;BME280;3239;48.714;9.472;2023-04-28T09:43:32;98591.88;;;13.31;100.00
6413;BME280;3239;48.714;9.472;2023-04-28T09:46:04;98590.91;;;13.41;100.00
6413;BME280;3239;48.714;9.472;2023-04-28T09:48:35;98586.66;;;13.40;100.00
6413;BME280;3239;48.714;9.472;2023-04-28T09:51:05;98585.72;;;13.38;100.00
6413;BME280;3239;48.714;9.472;2023-04-28T09:53:31;98586.13;;;13.42;100.00
6413;BME280;3239;48.714;9.472;2023-04-28T09:56:00;98577.47;;;13.38;100.00
6413;BME280;3239;48.714;9.472;2023-04-28T09:58:28;98572.00;;;13.25;100.00
6413;BME280;3239;48.714;9.472;2023-04-28T10:00:57;98574.28;;;13.34;100.00
6413;BME280;3239;48.714;9.472;2023-04-28T10:03:28;98572.44;;;13.16;100.00
6413;BME280;3239;48.714;9.472;2023-04-28T10:05:56;98575.56;;;13.33;100.00
6413;BME280;3239;48.714;9.472;2023-04-28T10:08:24;98570.09;;;13.20;100.00
6413;BME280;3239;48.714;9.472;2023-04-28T10:10:51;98570.25;;;13.35;100.00
6413;BME280;3239;48.714;9.472;2023-04-28T10:13:22;98567.66;;;13.63;100.00
6413;BME280;3239;48.714;9.472;2023-04-28T10:15:49;98570.22;;;13.81;100.00
6413;BME280;3239;48.714;9.472;2023-04-28T10:18:15;98555.75;;;14.01;100.00
6413;BME280;3239;48.714;9.472;2023-04-28T10:20:47;98574.06;;;14.40;100.00
6413;BME280;3239;48.714;9.472;2023-04-28T10:23:46;98571.31;;;14.96;100.00
6413;BME280;3239;48.714;9.472;2023-04-28T10:26:18;98569.56;;;15.49;100.00
6413;BME280;3239;48.714;9.472;2023-04-28T10:28:49;98545.66;;;15.59;100.00
6413;BME280;3239;48.714;9.472;2023-04-28T10:31:18;98542.94;;;15.81;100.00
6413;BME280;3239;48.714;9.472;2023-04-28T10:33:46;98504.06;;;16.02;100.00
6413;BME280;3239;48.714;9.472;2023-04-28T10:36:47;98457.06;;;16.17;100.00
6413;BME280;3239;48.714;9.472;2023-04-28T10:39:15;98427.78;;;16.14;100.00
6413;BME280;3239;48.714;9.472;2023-04-28T10:41:41;98382.47;;;15.94;100.00
6413;BME280;3239;48.714;9.472;2023-04-28T10:47:02;98321.56;;;15.70;100.00
6413;BME280;3239;48.714;9.472;2023-04-28T10:55:36;98310.03;;;16.11;100.00
6413;BME280;3239;48.714;9.472;2023-04-28T11:00:46;98296.38;;;16.92;100.00
6413;BME280;3239;48.714;9.472;2023-04-28T11:14:29;98260.66;;;17.28;100.00
6413;BME280;3239;48.714;9.472;2023-04-28T11:17:00;98269.63;;;17.77;100.00
6413;BME280;3239;48.714;9.472;2023-04-28T11:19:38;98257.94;;;18.13;100.00
6413;BME280;3239;48.714;9.472;2023-04-28T11:22:12;98259.28;;;18.38;100.00
6413;BME280;3239;48.714;9.472;2023-04-28T11:24:38;98225.88;;;18.19;100.00
6413;BME280;3239;48.714;9.472;2023-04-28T11:27:04;98187.03;;;17.76;100.00
6413;BME280;3239;48.714;9.472;2023-04-28T11:29:38;98181.34;;;17.40;100.00
6413;BME280;3239;48.714;9.472;2023-04-28T11:32:06;98193.47;;;17.78;100.00
6413;BME280;3239;48.714;9.472;2023-04-28T11:34:33;98184.50;;;17.36;100.00
6413;BME280;3239;48.714;9.472;2023-04-28T11:36:59;98194.06;;;17.43;100.00
6413;BME280;3239;48.714;9.472;2023-04-28T11:39:28;98211.16;;;17.32;100.00
6413;BME280;3239;48.714;9.472;2023-04-28T11:41:56;98211.50;;;17.11;100.00
6413;BME280;3239;48.714;9.472;2023-04-28T11:44:26;98202.31;;;16.84;100.00
6413;BME280;3239;48.714;9.472;2023-04-28T11:46:58;98219.03;;;16.69;100.00
6413;BME280;3239;48.714;9.472;2023-04-28T11:49:41;98229.09;;;16.82;100.00
6413;BME280;3239;48.714;9.472;2023-04-28T11:52:08;98235.91;;;17.05;100.00
6413;BME280;3239;48.714;9.472;2023-04-28T11:54:35;98236.81;;;17.08;100.00
6413;BME280;3239;48.714;9.472;2023-04-28T11:57:02;98234.97;;;17.10;100.00
6413;BME280;3239;48.714;9.472;2023-04-28T11:59:34;98219.03;;;17.18;100.00
6413;BME280;3239;48.714;9.472;2023-04-28T12:02:05;98225.44;;;17.45;100.00
6413;BME280;3239;48.714;9.472;2023-04-28T12:04:40;98214.94;;;17.44;100.00
6413;BME280;3239;48.714;9.472;2023-04-28T12:07:14;98198.03;;;17.49;100.00
6413;BME280;3239;48.714;9.472;2023-04-28T12:10:11;98179.06;;;17.46;100.00
6413;BME280;3239;48.714;9.472;2023-04-28T12:12:37;98165.69;;;17.35;100.00
6413;BME280;3239;48.714;9.472;2023-04-28T12:15:08;98185.31;;;17.29;100.00
6413;BME280;3239;48.714;9.472;2023-04-28T12:17:41;98189.03;;;17.49;100.00
6413;BME280;3239;48.714;9.472;2023-04-28T12:20:11;98191.31;;;17.43;100.00
6413;BME280;3239;48.714;9.472;2023-04-28T12:22:57;98184.25;;;17.25;100.00
6413;BME280;3239;48.714;9.472;2023-04-28T12:25:23;98184.66;;;17.21;100.00
6413;BME280;3239;48.714;9.472;2023-04-28T12:28:02;98198.28;;;17.27;100.00
6413;BME280;3239;48.714;9.472;2023-04-28T12:30:31;98203.22;;;17.28;100.00
6413;BME280;3239;48.714;9.472;2023-04-28T12:32:57;98215.09;;;17.21;100.00
6413;BME280;3239;48.714;9.472;2023-04-28T12:35:25;98228.25;;;17.38;100.00
6413;BME280;3239;48.714;9.472;2023-04-28T12:37:52;98250.19;;;17.43;100.00
6413;BME280;3239;48.714;9.472;2023-04-28T12:40:19;98255.25;;;17.54;100.00
6413;BME280;3239;48.714;9.472;2023-04-28T12:42:45;98252.31;;;17.52;100.00
6413;BME280;3239;48.714;9.472;2023-04-28T12:45:11;98244.75;;;17.53;100.00
6413;BME280;3239;48.714;9.472;2023-04-28T12:47:37;98241.31;;;17.62;100.00
6413;BME280;3239;48.714;9.472;2023-04-28T12:50:06;98249.41;;;17.67;100.00
6413;BME280;3239;48.714;9.472;2023-04-28T12:52:32;98235.06;;;17.61;100.00
6413;BME280;3239;48.714;9.472;2023-04-28T12:55:03;98241.34;;;17.79;100.00
6413;BME280;3239;48.714;9.472;2023-04-28T12:57:29;98227.94;;;17.51;100.00
6413;BME280;3239;48.714;9.472;2023-04-28T12:59:55;98230.91;;;17.53;100.00
6413;BME280;3239;48.714;9.472;2023-04-28T13:02:22;98225.09;;;17.75;100.00
6413;BME280;3239;48.714;9.472;2023-04-28T13:04:47;98223.56;;;18.25;100.00
6413;BME280;3239;48.714;9.472;2023-04-28T13:07:16;98199.56;;;18.37;100.00
6413;BME280;3239;48.714;9.472;2023-04-28T13:09:42;98188.75;;;18.68;100.00
6413;BME280;3239;48.714;9.472;2023-04-28T13:12:09;98175.56;;;19.04;100.00
6413;BME280;3239;48.714;9.472;2023-04-28T13:14:36;98156.91;;;19.24;100.00
6413;BME280;3239;48.714;9.472;2023-04-28T13:17:02;98124.28;;;19.72;100.00
6413;BME280;3239;48.714;9.472;2023-04-28T13:19:29;98103.47;;;19.92;100.00
6413;BME280;3239;48.714;9.472;2023-04-28T13:21:56;98078.88;;;20.07;100.00
6413;BME280;3239;48.714;9.472;2023-04-28T13:24:22;98064.13;;;19.86;100.00
6413;BME280;3239;48.714;9.472;2023-04-28T13:26:48;98066.84;;;19.36;100.00
6413;BME280;3239;48.714;9.472;2023-04-28T13:29:13;98068.75;;;18.96;100.00
6413;BME280;3239;48.714;9.472;2023-04-28T13:31:40;98050.28;;;18.17;100.00
6413;BME280;3239;48.714;9.472;2023-04-28T13:34:06;98057.84;;;17.80;100.00
6413;BME280;3239;48.714;9.472;2023-04-28T13:36:33;98049.06;;;18.01;100.00
6413;BME280;3239;48.714;9.472;2023-04-28T13:38:59;98047.75;;;18.38;100.00